• Join FlightAware (Why Join?)
  • Login
  • US Flag GB Flag 
15:20 EDT


 

Airport Tracker/Info


-or-


 

Live Flight TrackerFlight Track Log ✈ ASQ5685 ✈ 22-Jun-2013 ✈ KATL - KIAD

Flight Track Log - Related Links

Times and Time Zones

All times are in EDT time to prevent confusion due to time zone crossing. See the ASQ5685 flight status page for this flight to view local times or setup timezone preferences in your user account.

Time Position Orientation Groundspeed Altitude Reporting Facility
EDT Latitude Longitude Course Direction KTS MPH feet Rate Location/Type
09:57 33.6333 -84.3833 53° Northeast 172 198 2,300  Level Atlanta TRACON
09:58 33.6333 -84.3167 90° East 248 285 3,900 2,220 Climbing Atlanta TRACON
09:59 33.6333 -84.2167 90° East 275 316 6,800 2,520 Climbing Atlanta TRACON
10:00 33.7517 -83.9752 54° Northeast  Level FlightAware Approximate
10:00 33.6356 -84.1036 89° East 289 333 9,900  Level Atlanta Center
10:01 33.8087 -83.8802 54° Northeast  Level FlightAware Approximate
10:01 33.6919 -84.0239 50° Northeast 284 327 11,100  Level Atlanta Center
10:02 33.8656 -83.7850 54° Northeast  Level FlightAware Approximate
10:02 33.7586 -83.9389 47° Northeast 312 359 12,400  Level Atlanta Center
10:03 33.9293 -83.6964 53° Northeast  Level FlightAware Approximate
10:03 33.8275 -83.8489 47° Northeast 347 399 14,100  Level Atlanta Center
10:04 33.8983 -83.7586 47° Northeast 364 419 15,800 1,560 Climbing Atlanta Center
10:05 33.9647 -83.6606 51° Northeast 370 426 17,300 1,200 Climbing Atlanta Center
10:06 34.0292 -83.5550 54° Northeast 380 437 18,200 960 Climbing Atlanta Center
10:07 34.0956 -83.4517 52° Northeast 387 445 19,300 1,020 Climbing Atlanta Center
10:08 34.1617 -83.3433 54° Northeast 394 453 20,300 1,020 Climbing Atlanta Center
10:09 34.2300 -83.2347 53° Northeast 394 453 21,400 1,020 Climbing Atlanta Center
10:10 34.2939 -83.1361 52° Northeast 400 460 22,400 1,020 Climbing Atlanta Center
10:11 34.3578 -83.0247 55° Northeast 400 460 23,500 900 Climbing Atlanta Center
10:12 34.4278 -82.9156 52° Northeast 405 466 24,200 600 Climbing Atlanta Center
10:13 34.4956 -82.8039 54° Northeast 412 474 24,700 480 Climbing Atlanta Center
10:14 34.5717 -82.6917 51° Northeast 420 483 25,200 480 Climbing Atlanta Center
10:15 34.6411 -82.5744 54° Northeast 425 489 25,700 600 Climbing Atlanta Center
10:16 34.7208 -82.4442 53° Northeast 425 489 26,500 1,140 Climbing Atlanta Center
10:17 34.7925 -82.3289 53° Northeast 425 489 28,000 1,020 Climbing Atlanta Center
10:18 34.8597 -82.2161 54° Northeast 419 482 28,600 480 Climbing Atlanta Center
10:19 34.9331 -82.1031 52° Northeast 414 476 29,000 480 Climbing Atlanta Center
10:20 35.0022 -81.9875 54° Northeast 420 483 29,600 540 Climbing Atlanta Center
10:21 35.0689 -81.8664 56° Northeast 420 483 30,100 480 Climbing Atlanta Center
10:22 35.1333 -81.7428 57° Northeast 425 489 30,600 420 Climbing Atlanta Center
10:23 35.1978 -81.6217 57° Northeast 425 489 31,000 180 Climbing Atlanta Center
10:24 35.2622 -81.4953 58° Northeast 425 489 31,000  Level Atlanta Center
10:25 35.3283 -81.3683 57° Northeast 430 495 31,000  Level Atlanta Center
10:26 35.3842 -81.2569 58° Northeast 430 495 31,000  Level Atlanta Center
10:27 35.4561 -81.1169 58° Northeast 436 502 31,000  Level Atlanta Center
10:28 35.5219 -80.9919 57° Northeast 436 502 31,000  Level Atlanta Center
10:29 35.5875 -80.8697 57° Northeast 436 502 31,000  Level Atlanta Center
10:31 35.7072 -80.6389 57° Northeast 421 484 31,000  Level Washington Center
10:32 35.7711 -80.5125 58° Northeast 421 484 31,000  Level Washington Center
10:33 35.8347 -80.3858 58° Northeast 426 490 31,000  Level Washington Center
10:34 35.9069 -80.2492 57° Northeast 426 490 31,000  Level Washington Center
10:35 35.9681 -80.1242 59° Northeast 432 497 31,000  Level Washington Center
10:36 36.0283 -80.0147 56° Northeast 432 497 31,000  Level Washington Center
10:37 36.0956 -79.8925 56° Northeast 425 489 31,000  Level Washington Center
10:38 36.1714 -79.7553 56° Northeast 431 496 31,000  Level Washington Center
10:39 36.2422 -79.6353 54° Northeast 439 505 31,000 -180 Level Washington Center
10:40 36.3089 -79.5100 57° Northeast 433 498 30,700 -720 Descending Washington Center
10:41 36.3772 -79.3947 54° Northeast 440 506 29,600 -1,260 Descending Washington Center
10:42 36.4550 -79.2461 57° Northeast 452 520 28,300 -1,140 Descending Washington Center
10:43 36.5300 -79.1125 55° Northeast 475 547 27,400 -1,200 Descending Washington Center
10:44 36.6044 -78.9867 54° Northeast 481 554 25,900 -1,200 Descending Washington Center
10:45 36.6792 -78.8500 56° Northeast 481 554 25,000 -480 Descending Washington Center
10:46 36.7606 -78.6978 56° Northeast 476 548 25,000  Level Washington Center
10:47 36.8325 -78.5708 55° Northeast 466 536 25,000  Level Washington Center
10:48 36.8958 -78.4564 55° Northeast 458 527 25,000 -420 Level Washington Center
10:49 36.9839 -78.3453 45° Northeast 448 516 24,200 -1,020 Descending Washington Center
10:50 37.0800 -78.2550 37° Northeast 437 503 23,000 -1,140 Descending Washington Center
10:51 37.1714 -78.1697 37° Northeast 425 489 22,000 -540 Descending Washington Center
10:52 37.2608 -78.0867 36° Northeast 413 475 22,000  Level Washington Center
10:53 37.3544 -77.9981 37° Northeast 413 475 22,000  Level Washington Center
10:54 37.4481 -77.9069 38° Northeast 418 481 22,000  Level Washington Center
10:55 37.5456 -77.8208 35° Northeast 418 481 22,000 -720 Level Washington Center
10:56 37.6511 -77.7558 26° Northeast 418 481 20,600 -1,800 Descending Washington Center
10:57 37.7522 -77.6983 24° Northeast 405 466 18,400 -1,920 Descending Washington Center
10:58 37.8469 -77.6431 25° Northeast 385 443 16,800 -1,800 Descending Washington Center
10:59 37.9419 -77.5878 25° Northeast 378 435 14,900 -2,040 Descending Washington Center
11:00 38.0428 -77.5297 24° Northeast 373 429 12,800 -1,860 Descending Washington Center
11:01 38.1250 -77.4817 25° Northeast 344 396 11,200 -1,440 Descending Washington Center
11:02 38.2008 -77.4361 25° Northeast 325 374 10,000 -600 Descending Washington Center
11:03 38.2786 -77.3903 25° Northeast 305 351 10,000  Level Washington Center
11:04 38.3564 -77.3578 18° North 300 345 10,000 -600 Level Washington Center
11:05 38.4397 -77.3597 359° North 294 338 8,900 -1,680 Descending Washington Center
11:06 38.5189 -77.3642 357° North 289 333 6,700 -1,980 Descending Washington Center
11:07 38.5958 -77.3689 357° North 289 333 5,000 -1,200 Descending Washington Center
11:08 38.6772 -77.3653 North 289 333 4,400 -540 Descending Washington Center
11:09 38.7400 -77.3617 North 289 333 4,000 -240 Descending Washington Center
11:10 38.8358 -77.3558 North 289 333 4,000  Level Washington Center
11:11 38.9047 -77.3547 North 277 319 4,000  Level Washington Center
11:13 39.0000 -77.3500 North 245 282 4,000  Level Potomac TRACON
11:14 39.0500 -77.3500 360° North 245 282 4,000  Level Potomac TRACON
11:15 39.1167 -77.3500 360° North 221 254 4,000 -300 Level Potomac TRACON
11:16 39.1833 -77.3500 360° North 218 251 3,400 -540 Descending Potomac TRACON
11:17 39.2167 -77.3667 339° North 214 246 3,000 -240 Descending Potomac TRACON
11:18 39.1833 -77.4333 237° Southwest 197 227 3,000  Level Potomac TRACON
11:19 39.1500 -77.4333 180° South 185 213 3,000  Level Potomac TRACON